Time;durP1;ratioP1;P1;durP2;ratioP2;P2;SDS_P1;SDS_P2;PMS_P1;PMS_P2;Temp;Humidity;BMP_temperature;BMP_pressure;BME280_temperature;BME280_humidity;BME280_pressure;Samples;Min_cycle;Max_cycle;Signal;HPM_P1;HPM_P2
2023/06/27 00:01:27;;;;;;;477.98;443.85;;;;;;;;;;5098536;28;20048;-66
2023/06/27 00:03:54;;;;;;;461.17;429.58;;;;;;;;;;5097471;28;20039;-66
2023/06/27 00:06:21;;;;;;;481.52;446.35;;;;;;;;;;5099477;28;20554;-66
2023/06/27 00:08:48;;;;;;;469.23;435.88;;;;;;;;;;5095752;28;20032;-67
2023/06/27 00:11:15;;;;;;;478.23;444.98;;;;;;;;;;5103577;28;20044;-66
2023/06/27 00:13:42;;;;;;;489.65;454.65;;;;;;;;;;5105426;28;20098;-66
2023/06/27 00:16:15;;;;;;;483.13;449.27;;;;;;;;;;5103183;28;20040;-65
2023/06/27 00:18:47;;;;;;;483.13;448.20;;;;;;;;;;5103337;28;20067;-66
2023/06/27 00:21:15;;;;;;;482.47;448.53;;;;;;;;;;5107131;28;20130;-66
2023/06/27 00:23:43;;;;;;;487.10;451.40;;;;;;;;;;5104074;28;20135;-65
2023/06/27 00:26:12;;;;;;;495.10;460.30;;;;;;;;;;5106766;28;20071;-65
2023/06/27 00:28:39;;;;;;;488.42;453.00;;;;;;;;;;5103351;28;20051;-65
2023/06/27 00:31:06;;;;;;;487.73;452.27;;;;;;;;;;5103187;28;20055;-65
2023/06/27 00:33:33;;;;;;;508.05;470.92;;;;;;;;;;5104677;28;20492;-65
2023/06/27 00:36:00;;;;;;;488.45;453.48;;;;;;;;;;5104460;28;20523;-65
2023/06/27 00:38:27;;;;;;;492.85;454.67;;;;;;;;;;5103806;28;20040;-65
2023/06/27 00:40:56;;;;;;;473.13;441.65;;;;;;;;;;5106366;28;20134;-65
2023/06/27 00:43:27;;;;;;;493.95;459.35;;;;;;;;;;5083015;28;20520;-65
2023/06/27 00:45:54;;;;;;;475.80;443.70;;;;;;;;;;5106639;28;20097;-65
2023/06/27 00:48:21;;;;;;;491.55;456.45;;;;;;;;;;5099182;27;20040;-65
2023/06/27 00:50:49;;;;;;;486.63;451.92;;;;;;;;;;5083007;28;20077;-65
2023/06/27 00:53:17;;;;;;;494.83;459.42;;;;;;;;;;5104197;28;20118;-66
2023/06/27 00:55:44;;;;;;;482.45;448.98;;;;;;;;;;5105725;28;20047;-64
2023/06/27 00:58:10;;;;;;;481.80;448.65;;;;;;;;;;5083595;28;20096;-65
2023/06/27 01:00:38;;;;;;;500.95;465.23;;;;;;;;;;5085264;28;20048;-65
2023/06/27 01:03:07;;;;;;;492.25;456.83;;;;;;;;;;5103296;28;20047;-65
2023/06/27 01:05:35;;;;;;;499.23;460.05;;;;;;;;;;5081227;28;20090;-65
2023/06/27 01:08:12;;;;;;;497.58;462.27;;;;;;;;;;5085648;28;20079;-64
2023/06/27 01:10:44;;;;;;;486.52;451.65;;;;;;;;;;5101322;28;20040;-65
2023/06/27 01:13:17;;;;;;;508.30;471.92;;;;;;;;;;5082338;28;20151;-64
2023/06/27 01:15:44;;;;;;;488.25;452.90;;;;;;;;;;5089524;28;20440;-64
2023/06/27 01:18:13;;;;;;;497.02;462.45;;;;;;;;;;5101742;28;20048;-64
2023/06/27 01:20:43;;;;;;;506.42;468.50;;;;;;;;;;5097812;28;20109;-64
2023/06/27 01:23:22;;;;;;;493.05;458.95;;;;;;;;;;5087122;28;20053;-65
2023/06/27 01:25:50;;;;;;;495.60;460.50;;;;;;;;;;5103943;28;20044;-64
2023/06/27 01:28:17;;;;;;;493.05;459.02;;;;;;;;;;5081438;28;20051;-64
2023/06/27 01:30:44;;;;;;;490.85;456.80;;;;;;;;;;5101604;28;20488;-64
2023/06/27 01:33:16;;;;;;;508.50;472.35;;;;;;;;;;5084361;28;20032;-65
2023/06/27 01:35:47;;;;;;;496.20;461.02;;;;;;;;;;5102925;28;20087;-64
2023/06/27 01:38:27;;;;;;;479.95;447.13;;;;;;;;;;5088206;28;20481;-64
2023/06/27 01:40:55;;;;;;;498.08;463.50;;;;;;;;;;5094921;28;20056;-64
2023/06/27 01:43:22;;;;;;;497.55;461.98;;;;;;;;;;5103833;28;20047;-64
2023/06/27 01:45:49;;;;;;;492.30;458.20;;;;;;;;;;5101670;28;20044;-65
2023/06/27 01:48:16;;;;;;;487.42;453.65;;;;;;;;;;5104889;28;20091;-65
2023/06/27 01:50:43;;;;;;;489.17;454.05;;;;;;;;;;5103272;28;20048;-65
2023/06/27 01:53:09;;;;;;;506.92;469.33;;;;;;;;;;5101496;28;20044;-66
2023/06/27 01:55:36;;;;;;;500.30;465.02;;;;;;;;;;5084664;28;20055;-64
2023/06/27 01:58:03;;;;;;;473.67;441.92;;;;;;;;;;5085314;28;20036;-65
2023/06/27 02:03:28;;;;;;;445.63;405.80;;;;;;;;;;5006345;28;20072;-65
2023/06/27 02:05:56;;;;;;;438.15;398.85;;;;;;;;;;5012671;28;20042;-65
2023/06/27 02:08:22;;;;;;;449.30;405.70;;;;;;;;;;5012677;28;20062;-65
2023/06/27 02:10:49;;;;;;;431.70;393.88;;;;;;;;;;5010590;28;20136;-66
2023/06/27 02:13:16;;;;;;;438.00;400.45;;;;;;;;;;5012504;28;20146;-64
2023/06/27 02:15:44;;;;;;;440.83;401.58;;;;;;;;;;5012370;28;20056;-65
2023/06/27 02:18:11;;;;;;;434.38;397.15;;;;;;;;;;4974512;28;20050;-65
2023/06/27 02:20:38;;;;;;;453.27;411.02;;;;;;;;;;4994579;28;20062;-65
2023/06/27 02:23:05;;;;;;;448.58;408.70;;;;;;;;;;5032878;28;20048;-67
2023/06/27 02:25:32;;;;;;;434.48;396.20;;;;;;;;;;5014463;28;20128;-66
2023/06/27 02:28:00;;;;;;;445.25;407.60;;;;;;;;;;5032767;28;20041;-66
2023/06/27 02:30:27;;;;;;;443.55;401.83;;;;;;;;;;5031529;28;20491;-65
2023/06/27 02:32:54;;;;;;;431.30;393.02;;;;;;;;;;5031343;28;20052;-64
2023/06/27 02:35:22;;;;;;;448.98;408.55;;;;;;;;;;5014458;28;20064;-66
2023/06/27 02:37:49;;;;;;;439.85;402.75;;;;;;;;;;5030569;28;20049;-66
2023/06/27 02:40:16;;;;;;;442.75;403.50;;;;;;;;;;5030363;28;20550;-65
2023/06/27 02:42:43;;;;;;;442.48;405.15;;;;;;;;;;5020582;28;20048;-66
2023/06/27 02:45:10;;;;;;;443.55;402.90;;;;;;;;;;5013838;28;20438;-65
2023/06/27 02:47:38;;;;;;;444.27;403.75;;;;;;;;;;5031763;28;20093;-65
2023/06/27 02:50:05;;;;;;;440.70;401.13;;;;;;;;;;5032238;28;20045;-64
2023/06/27 02:52:34;;;;;;;440.63;400.73;;;;;;;;;;5013670;28;20136;-67
2023/06/27 02:55:01;;;;;;;442.58;403.33;;;;;;;;;;5031165;28;20410;-65
2023/06/27 02:57:30;;;;;;;443.80;403.25;;;;;;;;;;4997095;28;20041;-64
2023/06/27 02:59:58;;;;;;;442.83;401.20;;;;;;;;;;5013252;28;20132;-65
2023/06/27 03:02:25;;;;;;;466.50;419.42;;;;;;;;;;5018104;28;20049;-66
2023/06/27 03:04:53;;;;;;;434.33;397.35;;;;;;;;;;5031746;28;20114;-65
2023/06/27 03:07:20;;;;;;;431.50;392.48;;;;;;;;;;5031133;28;20049;-66
2023/06/27 03:09:47;;;;;;;427.50;389.13;;;;;;;;;;5026121;28;20402;-65
2023/06/27 03:12:16;;;;;;;425.15;388.08;;;;;;;;;;5046048;28;20533;-65
2023/06/27 03:14:43;;;;;;;435.13;395.77;;;;;;;;;;5029645;28;20096;-65
2023/06/27 03:17:11;;;;;;;432.15;394.02;;;;;;;;;;5030249;28;20060;-65
2023/06/27 03:19:38;;;;;;;434.02;394.40;;;;;;;;;;5029325;28;20091;-66
2023/06/27 03:22:12;;;;;;;433.20;395.15;;;;;;;;;;5042586;28;20053;-65
2023/06/27 03:24:40;;;;;;;457.38;414.10;;;;;;;;;;5029191;28;20052;-64
2023/06/27 03:27:07;;;;;;;447.33;407.42;;;;;;;;;;5029556;28;20441;-66
2023/06/27 03:29:38;;;;;;;439.08;397.88;;;;;;;;;;5046274;28;20870;-65
2023/06/27 03:32:06;;;;;;;449.90;409.25;;;;;;;;;;5031355;28;20050;-65
2023/06/27 03:34:33;;;;;;;447.95;407.70;;;;;;;;;;5029853;28;20498;-65
2023/06/27 03:37:01;;;;;;;426.83;390.50;;;;;;;;;;5031063;28;20029;-65
2023/06/27 03:39:28;;;;;;;434.27;395.95;;;;;;;;;;5042082;28;20479;-65
2023/06/27 03:41:56;;;;;;;421.02;384.13;;;;;;;;;;5030549;28;20041;-65
2023/06/27 03:44:22;;;;;;;428.90;390.65;;;;;;;;;;5030482;28;20060;-66
2023/06/27 03:46:51;;;;;;;428.50;390.58;;;;;;;;;;5028097;28;20042;-67
2023/06/27 03:49:18;;;;;;;427.23;390.08;;;;;;;;;;5029158;28;20053;-66
2023/06/27 03:51:46;;;;;;;421.73;385.65;;;;;;;;;;5030961;28;20037;-65
2023/06/27 03:54:13;;;;;;;423.88;386.35;;;;;;;;;;5028694;28;20049;-64
2023/06/27 03:56:40;;;;;;;445.38;398.95;;;;;;;;;;5029756;28;20072;-65
2023/06/27 03:59:07;;;;;;;423.77;386.85;;;;;;;;;;5030160;28;20052;-65
2023/06/27 04:01:34;;;;;;;421.33;385.48;;;;;;;;;;5034656;28;20049;-65
2023/06/27 04:04:01;;;;;;;429.23;390.20;;;;;;;;;;5045945;28;20129;-67
2023/06/27 04:06:29;;;;;;;435.02;395.67;;;;;;;;;;5028442;28;20056;-66
2023/06/27 04:08:57;;;;;;;438.83;398.80;;;;;;;;;;5049092;28;20068;-65
2023/06/27 04:11:24;;;;;;;430.77;391.25;;;;;;;;;;5032244;28;20045;-65
2023/06/27 04:13:56;;;;;;;437.85;399.73;;;;;;;;;;5050407;28;20076;-65
2023/06/27 04:16:23;;;;;;;421.45;385.67;;;;;;;;;;5050688;28;20060;-66
2023/06/27 04:18:50;;;;;;;426.08;389.05;;;;;;;;;;5031412;28;20053;-66
2023/06/27 04:21:18;;;;;;;430.00;392.83;;;;;;;;;;5032146;28;20072;-65
2023/06/27 04:23:45;;;;;;;417.52;380.42;;;;;;;;;;5049699;28;20398;-66
2023/06/27 04:26:15;;;;;;;431.90;395.05;;;;;;;;;;5049579;28;20044;-66
2023/06/27 04:28:43;;;;;;;423.60;386.13;;;;;;;;;;5049885;28;20411;-66
2023/06/27 04:31:10;;;;;;;429.88;393.67;;;;;;;;;;5050061;28;20401;-66
2023/06/27 04:33:39;;;;;;;428.70;389.33;;;;;;;;;;5032387;28;20041;-65
2023/06/27 04:36:06;;;;;;;431.02;388.45;;;;;;;;;;5032232;28;20048;-65
2023/06/27 04:38:37;;;;;;;427.60;384.05;;;;;;;;;;5050316;28;20073;-64
2023/06/27 04:41:05;;;;;;;442.13;405.10;;;;;;;;;;5033252;28;20136;-65
2023/06/27 04:43:34;;;;;;;434.40;399.38;;;;;;;;;;5050249;28;20048;-65
2023/06/27 04:46:03;;;;;;;454.52;413.20;;;;;;;;;;5049591;28;20052;-64
2023/06/27 04:48:30;;;;;;;450.08;411.38;;;;;;;;;;5050083;28;20041;-67
2023/06/27 04:50:58;;;;;;;451.60;410.55;;;;;;;;;;5032286;28;20060;-64
2023/06/27 04:53:30;;;;;;;484.08;439.55;;;;;;;;;;5031800;28;20045;-66
2023/06/27 04:55:57;;;;;;;469.00;430.50;;;;;;;;;;5053565;28;20406;-63
2023/06/27 04:58:24;;;;;;;462.63;426.05;;;;;;;;;;5019768;28;20087;-66
2023/06/27 05:00:51;;;;;;;468.52;431.27;;;;;;;;;;5054027;28;20491;-65
2023/06/27 05:03:20;;;;;;;477.00;438.42;;;;;;;;;;5053429;28;20566;-65
2023/06/27 05:05:49;;;;;;;478.35;438.52;;;;;;;;;;5053773;28;20044;-66
2023/06/27 05:08:16;;;;;;;470.63;432.02;;;;;;;;;;5054860;28;20052;-66
2023/06/27 05:10:43;;;;;;;461.00;423.30;;;;;;;;;;5053062;28;20076;-65
2023/06/27 05:13:15;;;;;;;456.85;421.10;;;;;;;;;;5053727;28;20045;-64
2023/06/27 05:15:42;;;;;;;462.85;426.90;;;;;;;;;;5050080;28;20569;-65
2023/06/27 05:18:09;;;;;;;465.00;428.92;;;;;;;;;;5053742;28;20474;-65
2023/06/27 05:20:36;;;;;;;487.08;444.63;;;;;;;;;;5035814;28;20052;-64
2023/06/27 05:23:04;;;;;;;482.80;448.10;;;;;;;;;;5054266;28;20540;-65
2023/06/27 05:25:31;;;;;;;498.42;461.88;;;;;;;;;;5053474;28;20056;-64
2023/06/27 05:27:58;;;;;;;486.77;451.67;;;;;;;;;;5051957;28;20068;-65
2023/06/27 05:30:27;;;;;;;483.90;448.98;;;;;;;;;;5053549;28;20044;-66
2023/06/27 05:32:54;;;;;;;489.85;454.15;;;;;;;;;;5053191;28;20406;-65
2023/06/27 05:35:22;;;;;;;488.67;452.65;;;;;;;;;;5053979;28;20041;-70
2023/06/27 05:37:48;;;;;;;479.95;445.23;;;;;;;;;;5053818;28;20102;-65
2023/06/27 05:40:15;;;;;;;478.50;443.73;;;;;;;;;;5053192;28;20052;-64
2023/06/27 05:42:41;;;;;;;472.20;435.23;;;;;;;;;;5052848;28;20041;-65
2023/06/27 05:45:08;;;;;;;456.23;423.40;;;;;;;;;;5034943;28;20087;-66
2023/06/27 05:47:35;;;;;;;453.58;418.50;;;;;;;;;;5053406;28;20080;-63
2023/06/27 05:50:02;;;;;;;444.17;412.25;;;;;;;;;;5051636;28;20064;-64
2023/06/27 05:52:29;;;;;;;456.88;422.92;;;;;;;;;;5053189;28;20045;-64
2023/06/27 05:54:56;;;;;;;460.70;428.15;;;;;;;;;;5034997;28;20041;-63
2023/06/27 05:57:23;;;;;;;447.42;414.95;;;;;;;;;;5053199;28;20094;-64
2023/06/27 05:59:50;;;;;;;459.27;426.65;;;;;;;;;;5052809;28;20474;-64
2023/06/27 06:02:16;;;;;;;433.98;403.98;;;;;;;;;;5053628;28;20444;-64
2023/06/27 06:04:43;;;;;;;429.52;398.63;;;;;;;;;;5049073;28;20041;-65
2023/06/27 06:07:10;;;;;;;425.23;395.70;;;;;;;;;;5048003;28;20057;-64
2023/06/27 06:09:36;;;;;;;435.10;403.83;;;;;;;;;;5052821;28;20106;-65
2023/06/27 06:12:03;;;;;;;423.27;394.75;;;;;;;;;;5051725;28;20124;-65
2023/06/27 06:14:30;;;;;;;456.08;422.08;;;;;;;;;;5052332;28;20094;-67
2023/06/27 06:16:56;;;;;;;413.42;386.73;;;;;;;;;;5053332;28;20459;-64
2023/06/27 06:19:23;;;;;;;384.20;358.88;;;;;;;;;;5052121;28;20437;-64
2023/06/27 06:21:49;;;;;;;400.50;372.77;;;;;;;;;;5052463;28;20490;-64
2023/06/27 06:24:16;;;;;;;388.83;363.38;;;;;;;;;;5052345;28;20119;-64
2023/06/27 06:26:43;;;;;;;391.10;361.65;;;;;;;;;;5052244;28;20044;-65
2023/06/27 06:29:13;;;;;;;373.65;349.23;;;;;;;;;;5035275;28;20136;-64
2023/06/27 06:31:40;;;;;;;371.83;346.17;;;;;;;;;;5052491;28;20490;-65
2023/06/27 06:34:07;;;;;;;362.75;338.85;;;;;;;;;;5052183;28;20514;-65
2023/06/27 06:36:34;;;;;;;366.38;340.02;;;;;;;;;;5052166;28;20513;-64
2023/06/27 06:39:00;;;;;;;349.38;325.90;;;;;;;;;;5051067;28;20463;-64
2023/06/27 06:41:27;;;;;;;379.92;353.38;;;;;;;;;;5051992;28;20045;-66
2023/06/27 06:43:53;;;;;;;359.38;335.13;;;;;;;;;;5035072;28;20048;-64
2023/06/27 06:46:20;;;;;;;365.05;340.27;;;;;;;;;;5052970;28;20049;-66
2023/06/27 06:48:47;;;;;;;376.50;351.38;;;;;;;;;;5055406;28;20160;-66
2023/06/27 06:51:13;;;;;;;361.63;336.40;;;;;;;;;;5055025;28;20048;-65
2023/06/27 06:53:40;;;;;;;354.33;329.27;;;;;;;;;;5054706;28;20048;-67
2023/06/27 06:56:06;;;;;;;337.38;316.17;;;;;;;;;;5056038;28;20052;-65
2023/06/27 06:58:33;;;;;;;359.02;334.85;;;;;;;;;;5055409;28;20049;-65
2023/06/27 07:01:00;;;;;;;365.05;341.52;;;;;;;;;;5054694;28;20071;-65
2023/06/27 07:03:26;;;;;;;379.10;353.38;;;;;;;;;;5053585;28;20132;-64
2023/06/27 07:05:53;;;;;;;380.67;354.52;;;;;;;;;;5054849;28;20477;-65
2023/06/27 07:08:19;;;;;;;362.60;338.25;;;;;;;;;;5059465;28;20453;-65
2023/06/27 07:10:46;;;;;;;349.08;325.17;;;;;;;;;;5055181;28;20037;-64
2023/06/27 07:13:13;;;;;;;354.40;329.23;;;;;;;;;;5038019;28;20486;-66
2023/06/27 07:15:39;;;;;;;363.48;338.45;;;;;;;;;;5058140;28;20055;-64
2023/06/27 07:18:06;;;;;;;331.83;310.88;;;;;;;;;;5058003;28;20045;-65
2023/06/27 07:20:33;;;;;;;370.88;341.70;;;;;;;;;;5057202;28;20128;-65
2023/06/27 07:22:59;;;;;;;362.67;337.88;;;;;;;;;;5055823;28;20543;-64
2023/06/27 07:25:28;;;;;;;350.45;326.55;;;;;;;;;;5057968;28;20547;-64
2023/06/27 07:27:54;;;;;;;347.40;324.67;;;;;;;;;;5058022;28;20052;-64
2023/06/27 07:30:21;;;;;;;346.85;324.80;;;;;;;;;;5057345;28;20490;-65
2023/06/27 07:32:48;;;;;;;345.50;323.42;;;;;;;;;;5053471;28;20638;-64
2023/06/27 07:35:15;;;;;;;347.02;324.08;;;;;;;;;;5058740;28;20049;-64
2023/06/27 07:37:41;;;;;;;365.50;340.77;;;;;;;;;;5058965;28;20071;-63
2023/06/27 07:40:08;;;;;;;358.65;335.00;;;;;;;;;;5056940;28;20044;-65
2023/06/27 07:42:35;;;;;;;371.17;345.83;;;;;;;;;;5053765;28;20489;-65
2023/06/27 07:45:01;;;;;;;392.15;362.02;;;;;;;;;;5056792;28;20089;-63
2023/06/27 07:47:28;;;;;;;386.67;358.58;;;;;;;;;;5056687;28;20049;-65
2023/06/27 07:49:55;;;;;;;370.23;344.85;;;;;;;;;;5056759;28;20041;-64
2023/06/27 07:52:21;;;;;;;383.90;359.50;;;;;;;;;;5054046;28;20045;-65
2023/06/27 07:54:48;;;;;;;391.52;363.15;;;;;;;;;;5055383;28;20048;-65
2023/06/27 07:57:15;;;;;;;400.90;371.38;;;;;;;;;;5055504;28;20051;-64
2023/06/27 07:59:41;;;;;;;430.88;393.45;;;;;;;;;;5055588;28;20052;-65
2023/06/27 08:02:08;;;;;;;387.33;359.45;;;;;;;;;;5053407;28;20060;-63
2023/06/27 08:04:35;;;;;;;390.33;363.20;;;;;;;;;;5054725;28;20041;-65
2023/06/27 08:07:02;;;;;;;400.60;371.50;;;;;;;;;;5055057;28;20048;-66
2023/06/27 08:09:28;;;;;;;383.48;355.63;;;;;;;;;;5037113;28;20045;-64
2023/06/27 08:11:55;;;;;;;401.73;371.42;;;;;;;;;;5053108;28;20045;-64
2023/06/27 08:14:22;;;;;;;385.08;358.23;;;;;;;;;;5036462;28;20049;-66
2023/06/27 08:16:48;;;;;;;398.60;371.83;;;;;;;;;;5053865;28;20132;-64
2023/06/27 08:19:18;;;;;;;387.42;359.27;;;;;;;;;;5054712;28;20049;-67
2023/06/27 08:21:44;;;;;;;399.83;371.67;;;;;;;;;;5053233;28;20105;-65
2023/06/27 08:24:11;;;;;;;379.90;353.73;;;;;;;;;;5052569;28;20044;-64
2023/06/27 08:26:37;;;;;;;409.33;375.58;;;;;;;;;;5052846;28;20064;-64
2023/06/27 08:29:04;;;;;;;416.02;386.08;;;;;;;;;;5053415;28;20045;-64
2023/06/27 08:31:31;;;;;;;405.13;375.17;;;;;;;;;;5055429;28;20073;-66
2023/06/27 08:33:57;;;;;;;398.70;369.90;;;;;;;;;;5055869;28;20033;-64
2023/06/27 08:36:24;;;;;;;427.63;396.23;;;;;;;;;;5055308;28;20124;-64
2023/06/27 08:38:51;;;;;;;412.58;381.95;;;;;;;;;;5054783;28;20060;-64
2023/06/27 08:41:17;;;;;;;420.92;389.75;;;;;;;;;;5055984;28;20124;-64
2023/06/27 08:43:44;;;;;;;418.27;388.13;;;;;;;;;;5054645;28;20053;-64
2023/06/27 08:46:11;;;;;;;418.92;388.92;;;;;;;;;;5055028;28;20037;-64
2023/06/27 08:48:39;;;;;;;426.98;394.75;;;;;;;;;;5054421;28;20045;-65
2023/06/27 08:51:06;;;;;;;415.85;384.73;;;;;;;;;;5054414;28;20547;-65
2023/06/27 08:53:36;;;;;;;423.52;388.95;;;;;;;;;;5054504;28;20071;-66
2023/06/27 08:56:14;;;;;;;419.13;387.13;;;;;;;;;;5054902;28;20072;-66
2023/06/27 08:58:40;;;;;;;425.88;394.58;;;;;;;;;;5053589;28;20052;-64
2023/06/27 09:01:09;;;;;;;413.73;384.40;;;;;;;;;;5054243;28;20381;-65
2023/06/27 09:03:35;;;;;;;407.55;378.60;;;;;;;;;;5054131;28;20080;-64
2023/06/27 09:06:05;;;;;;;397.13;368.90;;;;;;;;;;5054186;28;20045;-65
2023/06/27 09:08:32;;;;;;;416.77;385.45;;;;;;;;;;5050880;28;20041;-64
2023/06/27 09:11:00;;;;;;;389.52;363.25;;;;;;;;;;5054339;28;20049;-64
2023/06/27 09:13:27;;;;;;;384.08;358.10;;;;;;;;;;5053669;28;20041;-65
2023/06/27 09:15:53;;;;;;;392.15;365.67;;;;;;;;;;5054225;28;20055;-64
2023/06/27 09:18:20;;;;;;;395.85;367.27;;;;;;;;;;5053834;28;20072;-64
2023/06/27 09:20:47;;;;;;;399.83;368.02;;;;;;;;;;5052445;28;20068;-65
2023/06/27 09:23:14;;;;;;;399.98;371.92;;;;;;;;;;5054585;28;20537;-64
2023/06/27 09:25:40;;;;;;;379.48;352.83;;;;;;;;;;5054041;28;20044;-64
2023/06/27 09:28:17;;;;;;;388.77;361.92;;;;;;;;;;5052280;28;20072;-64
2023/06/27 09:30:53;;;;;;;403.98;373.45;;;;;;;;;;5055687;28;20044;-65
2023/06/27 09:33:20;;;;;;;382.80;354.75;;;;;;;;;;5053645;28;20033;-65
2023/06/27 09:35:47;;;;;;;412.83;379.15;;;;;;;;;;5053333;28;20524;-65
2023/06/27 09:38:30;;;;;;;419.55;389.70;;;;;;;;;;5051048;28;20404;-70
2023/06/27 09:41:04;;;;;;;409.83;381.02;;;;;;;;;;5027271;28;20053;-64
2023/06/27 09:43:32;;;;;;;406.83;378.10;;;;;;;;;;5053136;28;20402;-64
2023/06/27 09:45:59;;;;;;;402.10;373.63;;;;;;;;;;5049797;28;20091;-64
2023/06/27 09:48:28;;;;;;;422.10;392.40;;;;;;;;;;5051885;28;20044;-65
2023/06/27 09:50:58;;;;;;;431.67;399.85;;;;;;;;;;5052916;28;20536;-65
2023/06/27 09:53:25;;;;;;;420.95;390.90;;;;;;;;;;5053678;28;20076;-65
2023/06/27 09:55:58;;;;;;;404.77;377.20;;;;;;;;;;5053051;28;20069;-66
2023/06/27 09:58:25;;;;;;;402.58;374.27;;;;;;;;;;5035139;28;20056;-65
2023/06/27 10:00:52;;;;;;;415.85;387.45;;;;;;;;;;5052810;28;20045;-65
2023/06/27 10:03:20;;;;;;;393.83;366.05;;;;;;;;;;5052508;28;20479;-65
2023/06/27 10:05:47;;;;;;;432.27;396.35;;;;;;;;;;5035074;28;20044;-65
2023/06/27 10:08:33;;;;;;;425.20;391.17;;;;;;;;;;5051391;28;20410;-65
2023/06/27 10:11:00;;;;;;;415.55;386.38;;;;;;;;;;5034906;28;20426;-64
2023/06/27 10:13:26;;;;;;;412.02;383.40;;;;;;;;;;5052588;28;20106;-65
2023/06/27 10:15:53;;;;;;;407.08;377.60;;;;;;;;;;5052195;28;20406;-65
2023/06/27 10:18:20;;;;;;;389.05;361.90;;;;;;;;;;5052528;28;20045;-65
2023/06/27 10:20:47;;;;;;;420.75;385.70;;;;;;;;;;5052268;28;20049;-65
2023/06/27 10:23:14;;;;;;;397.27;369.88;;;;;;;;;;5035989;28;20068;-65
2023/06/27 10:25:41;;;;;;;407.95;380.33;;;;;;;;;;5051964;28;20048;-66
2023/06/27 10:28:08;;;;;;;404.67;376.40;;;;;;;;;;5052244;28;20432;-65
2023/06/27 10:30:42;;;;;;;428.50;397.15;;;;;;;;;;5052106;28;20490;-64
2023/06/27 10:33:18;;;;;;;444.23;411.38;;;;;;;;;;5052312;28;20064;-64
2023/06/27 10:35:49;;;;;;;454.55;416.88;;;;;;;;;;5034626;28;20049;-64
2023/06/27 10:38:17;;;;;;;414.83;386.23;;;;;;;;;;5053384;28;20041;-64
2023/06/27 10:40:57;;;;;;;403.27;375.38;;;;;;;;;;5034098;28;20045;-64
2023/06/27 10:43:44;;;;;;;418.58;389.13;;;;;;;;;;5030767;28;20190;-65
2023/06/27 10:46:17;;;;;;;418.38;389.42;;;;;;;;;;5044076;28;20049;-65
2023/06/27 10:48:57;;;;;;;424.58;393.20;;;;;;;;;;5052093;28;20037;-65
2023/06/27 10:51:32;;;;;;;422.80;391.08;;;;;;;;;;5034291;28;20124;-66
2023/06/27 10:54:17;;;;;;;430.80;397.73;;;;;;;;;;5049000;28;20029;-64
2023/06/27 10:56:43;;;;;;;422.67;387.48;;;;;;;;;;5041168;28;20140;-64
2023/06/27 10:59:17;;;;;;;427.20;394.90;;;;;;;;;;5050894;28;20045;-64
2023/06/27 11:01:50;;;;;;;434.45;401.77;;;;;;;;;;5051089;28;20618;-64
2023/06/27 11:04:17;;;;;;;413.45;384.75;;;;;;;;;;5038544;28;20041;-64
2023/06/27 11:06:47;;;;;;;418.88;388.52;;;;;;;;;;5033806;28;20055;-65
2023/06/27 11:09:16;;;;;;;433.05;400.85;;;;;;;;;;5051656;28;20126;-65
2023/06/27 11:11:53;;;;;;;454.40;417.92;;;;;;;;;;5033648;28;20482;-65
2023/06/27 11:14:32;;;;;;;438.25;407.48;;;;;;;;;;5035035;28;20041;-64
2023/06/27 11:16:59;;;;;;;399.67;371.50;;;;;;;;;;5052486;28;20053;-64
2023/06/27 11:19:25;;;;;;;410.63;380.52;;;;;;;;;;5050961;28;20529;-65
2023/06/27 11:21:56;;;;;;;419.45;389.10;;;;;;;;;;5051660;28;20486;-66
2023/06/27 11:24:24;;;;;;;411.13;381.95;;;;;;;;;;5033427;28;20490;-64
2023/06/27 11:26:51;;;;;;;422.15;390.45;;;;;;;;;;5051164;28;20124;-64
2023/06/27 11:29:17;;;;;;;423.75;393.33;;;;;;;;;;5052562;28;20041;-64
2023/06/27 11:31:44;;;;;;;416.27;386.58;;;;;;;;;;5051552;28;20060;-65
2023/06/27 11:34:11;;;;;;;422.42;392.58;;;;;;;;;;5047294;28;20044;-64
2023/06/27 11:36:38;;;;;;;426.92;395.00;;;;;;;;;;5033131;28;20068;-65
2023/06/27 11:39:12;;;;;;;414.20;384.15;;;;;;;;;;5051478;28;20056;-66
2023/06/27 11:41:42;;;;;;;422.73;387.85;;;;;;;;;;5033497;28;20060;-65
2023/06/27 11:44:09;;;;;;;408.20;380.00;;;;;;;;;;5048045;28;20491;-65
2023/06/27 11:46:53;;;;;;;426.25;395.58;;;;;;;;;;5051233;28;20137;-65
2023/06/27 11:49:19;;;;;;;;;;;;;;;;;;5033587;28;20045;-64
2023/06/27 11:51:46;;;;;;;447.73;413.38;;;;;;;;;;5051014;28;19920;-65
2023/06/27 11:54:16;;;;;;;418.65;388.42;;;;;;;;;;5033024;28;20052;-65
2023/06/27 11:56:42;;;;;;;416.25;381.83;;;;;;;;;;5051336;28;20047;-64
2023/06/27 11:59:09;;;;;;;387.73;360.48;;;;;;;;;;5051714;28;20116;-64
2023/06/27 12:01:39;;;;;;;397.63;367.48;;;;;;;;;;5047138;28;20037;-65
2023/06/27 12:04:12;;;;;;;377.17;350.13;;;;;;;;;;5030192;28;20033;-64
2023/06/27 12:06:38;;;;;;;379.88;352.48;;;;;;;;;;5054866;28;20037;-65
2023/06/27 12:09:18;;;;;;;376.92;350.48;;;;;;;;;;5036958;28;20045;-65
2023/06/27 12:11:50;;;;;;;399.75;365.33;;;;;;;;;;5052584;28;20068;-64
2023/06/27 12:14:23;;;;;;;378.73;352.88;;;;;;;;;;5054515;28;20052;-65
2023/06/27 12:16:50;;;;;;;384.45;357.92;;;;;;;;;;5054595;28;20037;-65
2023/06/27 12:19:20;;;;;;;390.90;363.77;;;;;;;;;;5036696;28;20053;-64
2023/06/27 12:21:47;;;;;;;397.40;368.65;;;;;;;;;;5037161;28;20041;-66
2023/06/27 12:24:14;;;;;;;381.67;355.10;;;;;;;;;;5054739;28;20041;-64
2023/06/27 12:26:40;;;;;;;401.33;368.17;;;;;;;;;;5054723;28;20071;-64
2023/06/27 12:29:08;;;;;;;390.70;363.98;;;;;;;;;;5055233;28;20049;-67
2023/06/27 12:31:35;;;;;;;394.95;367.65;;;;;;;;;;5036658;28;20072;-64
2023/06/27 12:34:02;;;;;;;403.98;373.60;;;;;;;;;;5036151;28;20037;-64
2023/06/27 12:36:33;;;;;;;415.55;386.55;;;;;;;;;;5036566;28;20131;-63
2023/06/27 12:39:00;;;;;;;411.05;380.35;;;;;;;;;;5036923;28;20056;-65
2023/06/27 12:41:27;;;;;;;399.20;372.45;;;;;;;;;;5055161;28;20037;-65
2023/06/27 12:43:53;;;;;;;396.83;368.75;;;;;;;;;;5053943;28;20044;-65
2023/06/27 12:46:20;;;;;;;394.55;366.42;;;;;;;;;;5054427;28;20048;-66
2023/06/27 12:48:47;;;;;;;407.40;377.65;;;;;;;;;;5054166;28;20090;-67
2023/06/27 12:51:14;;;;;;;384.95;357.73;;;;;;;;;;5054368;28;20099;-65
2023/06/27 12:53:46;;;;;;;403.50;370.13;;;;;;;;;;5054096;28;20056;-65
2023/06/27 12:56:12;;;;;;;384.00;356.33;;;;;;;;;;5054856;28;20037;-65
2023/06/27 12:58:41;;;;;;;382.70;354.27;;;;;;;;;;5050182;28;20053;-64
2023/06/27 13:01:09;;;;;;;412.13;381.27;;;;;;;;;;5053574;28;20037;-65
2023/06/27 13:03:36;;;;;;;412.20;380.90;;;;;;;;;;5053617;28;20059;-65
2023/06/27 13:06:02;;;;;;;404.50;374.40;;;;;;;;;;5053816;28;20044;-70
2023/06/27 13:08:29;;;;;;;393.35;365.48;;;;;;;;;;5055278;28;20075;-65
2023/06/27 13:10:56;;;;;;;375.83;350.38;;;;;;;;;;5053466;28;20045;-64
2023/06/27 13:13:23;;;;;;;403.70;374.85;;;;;;;;;;5049974;28;20128;-64
2023/06/27 13:15:49;;;;;;;404.83;376.95;;;;;;;;;;5055272;28;20036;-64
2023/06/27 13:18:36;;;;;;;412.73;384.13;;;;;;;;;;5049939;28;20041;-66
2023/06/27 13:21:03;;;;;;;397.40;367.48;;;;;;;;;;5053264;28;20111;-68
2023/06/27 13:23:29;;;;;;;409.67;380.25;;;;;;;;;;5036896;28;20414;-64
2023/06/27 13:25:56;;;;;;;405.85;377.48;;;;;;;;;;5053611;28;20470;-65
2023/06/27 13:28:23;;;;;;;411.02;382.45;;;;;;;;;;5053608;28;20071;-64
2023/06/27 13:30:52;;;;;;;390.58;362.52;;;;;;;;;;5053407;28;20044;-66
2023/06/27 13:33:18;;;;;;;388.20;361.10;;;;;;;;;;5049646;28;20498;-65
2023/06/27 13:35:45;;;;;;;407.58;373.98;;;;;;;;;;5053743;28;20037;-65
2023/06/27 13:38:13;;;;;;;371.73;345.80;;;;;;;;;;5054343;28;20041;-64
2023/06/27 13:40:40;;;;;;;377.85;350.40;;;;;;;;;;5035124;28;20045;-64
2023/06/27 13:43:07;;;;;;;344.33;321.33;;;;;;;;;;5053315;28;20044;-65
2023/06/27 13:45:33;;;;;;;371.83;345.98;;;;;;;;;;5035292;28;20049;-64
2023/06/27 13:48:00;;;;;;;359.67;334.65;;;;;;;;;;5052994;28;20037;-64
2023/06/27 13:50:27;;;;;;;360.10;335.63;;;;;;;;;;5053673;28;20087;-67
2023/06/27 13:52:53;;;;;;;353.50;329.45;;;;;;;;;;5035265;28;20045;-65
2023/06/27 13:55:20;;;;;;;349.98;326.17;;;;;;;;;;5052943;28;20136;-66
2023/06/27 13:57:46;;;;;;;350.33;326.73;;;;;;;;;;5035240;28;20044;-67
2023/06/27 14:00:13;;;;;;;350.35;325.60;;;;;;;;;;5052748;28;20047;-65
2023/06/27 14:02:40;;;;;;;368.50;339.42;;;;;;;;;;5052951;28;20118;-66